LGTS Airport Information

Runway Information
Runway 10 Length 8005 ft width 164 ft
Elevation 9 ft Threshold 0 ft Heading 104
Runway 28 Length 8005 ft Width 164 ft
Elevation 19 ft Threshold 0 ft Heading 284
Runway 16 Length 7907 ft width 197 ft
Elevation 14 ft Threshold 0 ft Heading 166
Runway 34 Length 7907 ft Width 197 ft
Elevation 22 ft Threshold 0 ft Heading 346
Airport Frequencies
Type A/G Name RDO Frequency 563.7 MHZ
Type APP Name APP Frequency 120.8 MHZ
Type ATIS Name ATIS Frequency 127.55 MHZ
Type CLD Name CLNC DEL Frequency 118.05 MHZ
Type GND Name GND Frequency 121.7 MHZ
Type TWR Name TWR Frequency 118.1 MHZ
Airport Navaids
Type TACAN Name Mikra Frequency 117400 KHZ
Type TACAN Name Mikra Frequency 115300 KHZ
Type VOR-DME Name Mikra Frequency 110800 KHZ
Type NDB Name Thessaloniki Frequency 345 KHZ
Type VOR-DME Name Thessaloniki Frequency 112100 KHZ
Airport Weather Information & NOTAM
ADDS - METARS form results

(1026 UTC 26 January 2022)
Data provider http://aviationweather.gov/metar/data/
 
METAR text: LGTS 261020Z 35008KT CAVOK 05/M09 Q1026 NOSIG
Conditions at: LGTS (THESSALONIKI/MIK, GR) observed 1020 UTC 26 January 2022
Temperature: 5.0°C (41°F)
Dewpoint: -9.0°C (16°F) [RH = 35%]
Pressure (altimeter): 30.30 inches Hg (1026.0 mb)
Winds: from the N (350 degrees) at 9 MPH (8 knots; 4.1 m/s)
Visibility: 6 or more miles (10+ km)
Ceiling: ceiling and visibility are OK
Clouds: unknown
Weather: no significant weather observed at this time

METAR text: LGTS 260950Z 35005KT CAVOK 04/M09 Q1026 NOSIG
Conditions at: LGTS (THESSALONIKI/MIK, GR) observed 0950 UTC 26 January 2022
Temperature: 4.0°C (39°F)
Dewpoint: -9.0°C (16°F) [RH = 38%]
Pressure (altimeter): 30.30 inches Hg (1026.0 mb)
Winds: from the N (350 degrees) at 6 MPH (5 knots; 2.6 m/s)
Visibility: 6 or more miles (10+ km)
Ceiling: ceiling and visibility are OK
Clouds: unknown
Weather: no significant weather observed at this time

Forecast for: LGTS (THESSALONIKI/MIK, GR)
Text: TAF LGTS 260500Z 2606/2706 35015KT 9999 FEW030
Forecast period: 0600 UTC 26 January 2022 to 0600 UTC 27 January 2022
Forecast type: FROM: standard forecast or significant change
Winds: from the N (350 degrees) at 17 MPH (15 knots; 7.7 m/s)
Visibility: 6 or more miles (10+ km)
Ceiling: at least 12,000 feet AGL
Clouds: few clouds at 3000 feet AGL
Weather: no significant weather forecast for this period